Time;durP1;ratioP1;P1;durP2;ratioP2;P2;SDS_P1;SDS_P2;PMS_P1;PMS_P2;Temp;Humidity;BMP_temperature;BMP_pressure;BME280_temperature;BME280_humidity;BME280_pressure;Samples;Min_cycle;Max_cycle;Signal;HPM_P1;HPM_P2
2023/11/09 00:02:12;;;;;;;0.40;0.40;;;;;;;9.03;100.00;97137.28;5065747;28;20044;-63
2023/11/09 00:04:40;;;;;;;0.40;0.40;;;;;;;8.98;100.00;97147.78;5064154;28;20048;-63
2023/11/09 00:07:07;;;;;;;0.40;0.40;;;;;;;9.05;100.00;97165.34;5065710;28;20083;-64
2023/11/09 00:09:35;;;;;;;0.40;0.40;;;;;;;8.56;100.00;97121.84;5065488;28;20135;-63
2023/11/09 00:12:04;;;;;;;0.35;0.35;;;;;;;8.89;100.00;97158.22;5065326;28;20578;-63
2023/11/09 00:14:32;;;;;;;0.40;0.40;;;;;;;8.91;100.00;97161.44;5065306;28;20059;-63
2023/11/09 00:16:59;;;;;;;0.40;0.40;;;;;;;8.98;100.00;97156.06;5065207;28;20052;-63
2023/11/09 00:19:26;;;;;;;0.40;0.40;;;;;;;8.77;100.00;97138.97;5065583;28;20748;-63
2023/11/09 00:21:53;;;;;;;0.40;0.40;;;;;;;8.40;100.00;97107.25;5064880;28;20439;-63
2023/11/09 00:24:20;;;;;;;0.40;0.40;;;;;;;8.68;100.00;97157.66;5065139;28;20084;-64
2023/11/09 00:26:48;;;;;;;0.40;0.40;;;;;;;8.52;100.00;97110.72;5065547;28;20143;-63
2023/11/09 00:29:15;;;;;;;0.40;0.40;;;;;;;8.73;100.00;97154.63;5065411;28;20053;-64
2023/11/09 00:31:42;;;;;;;0.40;0.40;;;;;;;8.57;100.00;97167.63;5064959;28;20458;-63
2023/11/09 00:34:11;;;;;;;0.40;0.40;;;;;;;8.32;100.00;97166.16;5080324;28;20057;-63
2023/11/09 00:36:38;;;;;;;0.40;0.40;;;;;;;8.16;100.00;97145.97;5068907;28;20064;-63
2023/11/09 00:39:07;;;;;;;0.40;0.40;;;;;;;7.98;100.00;97090.34;5085303;28;20055;-63
2023/11/09 00:41:33;;;;;;;0.40;0.40;;;;;;;8.28;100.00;97159.75;5083344;28;20071;-63
2023/11/09 00:44:00;;;;;;;0.40;0.40;;;;;;;7.80;100.00;97085.47;5085136;28;20064;-63
2023/11/09 00:46:27;;;;;;;0.40;0.40;;;;;;;8.40;100.00;97168.78;5085484;28;20044;-63
2023/11/09 00:48:53;;;;;;;0.40;0.40;;;;;;;8.40;100.00;97165.19;5075481;28;20071;-63
2023/11/09 00:51:20;;;;;;;0.40;0.40;;;;;;;8.43;100.00;97167.25;5084570;28;20391;-63
2023/11/09 00:53:47;;;;;;;0.40;0.40;;;;;;;8.34;100.00;97163.84;5084796;28;20043;-63
2023/11/09 00:56:17;;;;;;;0.38;0.38;;;;;;;8.22;100.00;97161.13;5084864;28;20050;-63
2023/11/09 00:58:44;;;;;;;0.40;0.40;;;;;;;6.94;100.00;97018.00;5083094;28;20058;-63
2023/11/09 01:01:11;;;;;;;0.40;0.40;;;;;;;8.07;100.00;97170.16;5084961;28;20059;-65
2023/11/09 01:03:37;;;;;;;0.40;0.40;;;;;;;7.98;100.00;97139.97;5084448;28;20155;-63
2023/11/09 01:06:07;;;;;;;0.40;0.40;;;;;;;8.08;100.00;97167.03;5084877;28;20048;-63
2023/11/09 01:08:34;;;;;;;0.40;0.40;;;;;;;8.11;100.00;97171.06;5084466;28;20589;-63
2023/11/09 01:11:05;;;;;;;0.38;0.38;;;;;;;8.02;100.00;97165.69;5082587;28;20047;-63
2023/11/09 01:13:34;;;;;;;0.40;0.40;;;;;;;7.84;100.00;97144.28;5083050;28;20169;-63
2023/11/09 01:16:02;;;;;;;0.40;0.40;;;;;;;5.70;100.00;96808.19;5084492;28;20048;-64
2023/11/09 01:18:29;;;;;;;0.40;0.40;;;;;;;7.83;100.00;97153.69;5084961;28;20058;-64
2023/11/09 01:20:56;;;;;;;0.30;0.30;;;;;;;7.76;100.00;97153.50;5083029;28;20064;-64
2023/11/09 01:23:23;;;;;;;0.40;0.40;;;;;;;7.58;100.00;97119.88;5082967;28;20044;-63
2023/11/09 01:25:50;;;;;;;0.40;0.40;;;;;;;7.44;100.00;97130.50;5084088;28;20134;-63
2023/11/09 01:28:17;;;;;;;0.40;0.40;;;;;;;7.67;100.00;97182.00;5084256;28;20062;-64
2023/11/09 01:30:46;;;;;;;0.32;0.32;;;;;;;7.55;100.00;97143.44;5082774;28;20421;-62
2023/11/09 01:33:13;;;;;;;0.30;0.30;;;;;;;7.58;100.00;97158.47;5084180;28;20063;-63
2023/11/09 01:35:40;;;;;;;0.40;0.40;;;;;;;7.57;100.00;97138.38;5073628;28;20130;-64
2023/11/09 01:38:07;;;;;;;0.30;0.30;;;;;;;7.61;100.00;97169.63;5075027;28;20054;-63
2023/11/09 01:40:36;;;;;;;0.40;0.40;;;;;;;7.67;100.00;97157.19;5062213;28;20072;-63
2023/11/09 01:43:10;;;;;;;0.38;0.38;;;;;;;7.65;100.00;97170.50;5063838;28;20068;-64
2023/11/09 01:45:36;;;;;;;0.40;0.40;;;;;;;7.17;100.00;97101.72;5064027;28;20082;-63
2023/11/09 01:48:04;;;;;;;0.40;0.40;;;;;;;7.57;100.00;97184.44;5063858;28;20064;-63
2023/11/09 01:50:31;;;;;;;0.40;0.40;;;;;;;7.60;100.00;97179.00;5063863;28;20051;-63
2023/11/09 01:52:59;;;;;;;0.40;0.40;;;;;;;7.44;100.00;97175.41;5063680;28;20213;-63
2023/11/09 01:55:28;;;;;;;0.30;0.30;;;;;;;7.44;100.00;97174.59;5063538;28;20044;-63
2023/11/09 01:57:55;;;;;;;0.40;0.40;;;;;;;6.91;100.00;97100.47;5064111;28;20056;-63
2023/11/09 02:00:22;;;;;;;0.40;0.40;;;;;;;7.23;100.00;97166.47;5062531;28;20133;-63
2023/11/09 02:02:52;;;;;;;0.40;0.40;;;;;;;7.10;100.00;97129.03;5062151;28;20052;-63
2023/11/09 02:05:20;;;;;;;0.40;0.40;;;;;;;7.31;100.00;97181.25;5062374;28;20056;-64
2023/11/09 02:07:49;;;;;;;0.40;0.40;;;;;;;7.23;100.00;97184.94;5078911;28;20068;-63
2023/11/09 02:10:16;;;;;;;0.32;0.32;;;;;;;7.11;100.00;97182.19;5061769;28;20063;-63
2023/11/09 02:12:43;;;;;;;0.30;0.30;;;;;;;7.00;100.00;97198.34;5063686;28;20594;-63
2023/11/09 02:15:10;;;;;;;0.30;0.30;;;;;;;6.96;100.00;97197.44;5063668;28;20476;-62
2023/11/09 02:17:37;;;;;;;0.30;0.30;;;;;;;6.55;100.00;97159.09;5063706;28;20051;-63
2023/11/09 02:20:05;;;;;;;0.40;0.40;;;;;;;6.82;100.00;97196.97;5063643;28;20552;-63
2023/11/09 02:22:32;;;;;;;0.30;0.30;;;;;;;6.77;100.00;97205.44;5063690;28;20074;-63
2023/11/09 02:24:59;;;;;;;0.32;0.32;;;;;;;6.76;100.00;97203.03;5063624;28;20059;-63
2023/11/09 02:27:26;;;;;;;0.35;0.35;;;;;;;6.61;100.00;97190.72;5063569;28;20057;-63
2023/11/09 02:29:53;;;;;;;0.38;0.38;;;;;;;6.49;100.00;97181.66;5063275;28;20543;-63
2023/11/09 02:32:20;;;;;;;0.35;0.35;;;;;;;6.62;100.00;97222.63;5063525;28;20127;-63
2023/11/09 02:34:50;;;;;;;0.30;0.30;;;;;;;5.95;100.00;97142.41;5078681;28;20048;-62
2023/11/09 02:37:17;;;;;;;0.40;0.40;;;;;;;6.47;100.00;97241.72;5063191;28;20052;-63
2023/11/09 02:39:43;;;;;;;0.32;0.32;;;;;;;6.39;100.00;97246.16;5063531;28;20056;-64
2023/11/09 02:42:11;;;;;;;0.30;0.30;;;;;;;6.32;100.00;97242.34;5063103;28;20055;-62
2023/11/09 02:44:39;;;;;;;0.30;0.30;;;;;;;6.25;100.00;97236.59;5063259;28;20067;-65
2023/11/09 02:47:05;;;;;;;0.30;0.30;;;;;;;5.80;100.00;97179.53;5061829;28;20131;-65
2023/11/09 02:49:32;;;;;;;0.30;0.30;;;;;;;6.10;100.00;97207.78;5062969;28;20061;-63
2023/11/09 02:51:59;;;;;;;0.30;0.30;;;;;;;6.06;100.00;97212.34;5061507;28;20549;-63
2023/11/09 02:54:26;;;;;;;0.30;0.30;;;;;;;6.24;100.00;97230.31;5062723;28;20374;-64
2023/11/09 02:56:53;;;;;;;0.30;0.30;;;;;;;6.32;100.00;97237.66;5058171;28;20429;-63
2023/11/09 02:59:19;;;;;;;0.30;0.30;;;;;;;6.23;100.00;97253.44;5043282;28;20057;-63
2023/11/09 03:01:46;;;;;;;0.30;0.30;;;;;;;5.90;100.00;97239.63;5043193;28;20083;-63
2023/11/09 03:04:13;;;;;;;0.30;0.30;;;;;;;5.96;100.00;97241.03;5041673;28;20174;-64
2023/11/09 03:06:40;;;;;;;0.30;0.30;;;;;;;6.05;100.00;97260.22;5058431;28;20053;-64
2023/11/09 03:09:08;;;;;;;0.30;0.30;;;;;;;5.46;100.00;97192.72;5042154;28;20132;-63
2023/11/09 03:11:35;;;;;;;0.30;0.30;;;;;;;5.84;100.00;97251.16;5060520;28;20131;-63
2023/11/09 03:14:02;;;;;;;0.40;0.40;;;;;;;5.84;100.00;97253.91;5046309;28;20414;-62
2023/11/09 03:16:28;;;;;;;0.30;0.30;;;;;;;5.87;100.00;97258.75;5061330;28;20045;-63
2023/11/09 03:18:55;;;;;;;0.40;0.40;;;;;;;5.87;100.00;97258.75;5061772;28;20056;-63
2023/11/09 03:21:22;;;;;;;0.40;0.40;;;;;;;5.91;100.00;97267.94;5046678;28;20156;-62
2023/11/09 03:23:49;;;;;;;0.30;0.30;;;;;;;5.84;100.00;97262.16;5046708;28;20049;-63
2023/11/09 03:26:16;;;;;;;0.22;0.22;;;;;;;5.81;100.00;97257.31;5046686;28;20061;-63
2023/11/09 03:28:43;;;;;;;0.30;0.30;;;;;;;5.74;100.00;97276.25;5046309;28;20136;-62
2023/11/09 03:31:11;;;;;;;0.30;0.30;;;;;;;5.67;100.00;97273.25;5046792;28;20124;-63
2023/11/09 03:33:38;;;;;;;0.30;0.30;;;;;;;5.68;100.00;97269.34;5046304;28;20045;-63
2023/11/09 03:36:06;;;;;;;0.30;0.30;;;;;;;5.69;100.00;97269.00;5045791;28;20067;-63
2023/11/09 03:38:32;;;;;;;0.30;0.30;;;;;;;5.57;100.00;97255.19;5064647;28;20242;-63
2023/11/09 03:40:59;;;;;;;0.30;0.30;;;;;;;5.57;100.00;97259.88;5066389;28;20044;-65
2023/11/09 03:43:26;;;;;;;0.30;0.30;;;;;;;5.67;100.00;97284.25;5065943;28;20383;-62
2023/11/09 03:45:52;;;;;;;0.32;0.32;;;;;;;5.53;100.00;97280.94;5066198;28;20094;-63
2023/11/09 03:48:19;;;;;;;0.30;0.30;;;;;;;5.63;100.00;97283.28;5066098;28;20159;-62
2023/11/09 03:50:46;;;;;;;0.30;0.30;;;;;;;5.68;100.00;97278.41;5064803;28;20130;-62
2023/11/09 03:53:13;;;;;;;0.30;0.30;;;;;;;5.73;100.00;97285.66;5064737;28;20124;-63
2023/11/09 03:55:40;;;;;;;0.30;0.30;;;;;;;5.35;100.00;97247.25;5065678;28;20053;-63
2023/11/09 03:58:06;;;;;;;0.30;0.30;;;;;;;4.88;100.00;97184.53;5060687;28;20495;-63
2023/11/09 04:00:33;;;;;;;0.30;0.30;;;;;;;5.56;100.00;97307.75;5060530;28;20079;-63
2023/11/09 04:03:00;;;;;;;0.30;0.30;;;;;;;5.30;100.00;97254.88;5061060;28;20052;-63
2023/11/09 04:05:27;;;;;;;0.30;0.30;;;;;;;5.62;100.00;97317.41;5045940;28;20053;-62
2023/11/09 04:07:54;;;;;;;0.40;0.40;;;;;;;5.00;100.00;97239.50;5045451;28;20056;-63
2023/11/09 04:10:21;;;;;;;0.30;0.30;;;;;;;5.30;100.00;97294.13;5045566;28;20055;-63
2023/11/09 04:12:48;;;;;;;0.30;0.30;;;;;;;5.48;100.00;97322.31;5045232;28;20436;-62
2023/11/09 04:15:15;;;;;;;0.30;0.30;;;;;;;5.37;100.00;97326.56;5044000;28;20056;-62
2023/11/09 04:17:42;;;;;;;0.30;0.30;;;;;;;5.36;100.00;97330.47;5045185;28;20052;-64
2023/11/09 04:20:09;;;;;;;0.30;0.30;;;;;;;5.32;100.00;97324.00;5060316;28;20137;-62
2023/11/09 04:22:35;;;;;;;0.30;0.30;;;;;;;5.11;100.00;97309.38;5043873;28;20517;-62
2023/11/09 04:25:03;;;;;;;0.30;0.30;;;;;;;5.13;100.00;97326.34;5043970;28;20057;-63
2023/11/09 04:27:30;;;;;;;0.30;0.30;;;;;;;5.06;100.00;97331.56;5045297;28;20130;-62
2023/11/09 04:29:57;;;;;;;0.30;0.30;;;;;;;5.02;100.00;97330.56;5045643;28;20079;-62
2023/11/09 04:32:25;;;;;;;0.30;0.30;;;;;;;4.88;100.00;97333.53;5045308;28;20059;-63
2023/11/09 04:34:53;;;;;;;0.30;0.30;;;;;;;4.69;100.00;97333.88;5045059;28;20164;-63
2023/11/09 04:37:21;;;;;;;0.30;0.30;;;;;;;4.78;100.00;97335.78;5051298;28;20051;-63
2023/11/09 04:39:51;;;;;;;0.30;0.30;;;;;;;4.81;100.00;97351.59;5063627;28;20056;-64
2023/11/09 04:42:19;;;;;;;0.30;0.30;;;;;;;4.77;100.00;97356.97;5063521;28;20041;-63
2023/11/09 04:44:46;;;;;;;0.30;0.30;;;;;;;4.75;100.00;97348.25;5063424;28;20076;-63
2023/11/09 04:47:21;;;;;;;0.30;0.30;;;;;;;4.59;100.00;97320.50;5064671;28;20113;-64
2023/11/09 04:49:57;;;;;;;0.30;0.30;;;;;;;4.71;100.00;97352.75;5064921;28;20147;-63
2023/11/09 04:52:30;;;;;;;0.30;0.30;;;;;;;4.78;100.00;97374.22;5065151;28;20125;-62
2023/11/09 04:55:09;;;;;;;0.22;0.22;;;;;;;4.47;100.00;97314.84;5064230;28;20052;-63
2023/11/09 05:08:44;;;;;;;0.20;0.20;;;;;;;4.53;100.00;97352.00;5064709;28;20526;-63
2023/11/09 05:11:13;;;;;;;0.30;0.30;;;;;;;4.68;100.00;97355.34;5064067;28;20427;-64
2023/11/09 05:13:40;;;;;;;0.30;0.30;;;;;;;4.72;100.00;97354.38;5063048;28;20048;-63
2023/11/09 05:16:07;;;;;;;0.30;0.30;;;;;;;4.85;100.00;97380.03;5062512;28;20437;-63
2023/11/09 05:18:34;;;;;;;0.30;0.30;;;;;;;4.79;100.00;97386.81;5063738;28;20059;-63
2023/11/09 05:21:02;;;;;;;0.30;0.30;;;;;;;4.27;100.00;97298.25;5063695;28;20622;-63
2023/11/09 05:23:29;;;;;;;0.30;0.30;;;;;;;5.03;100.00;97393.38;5063678;28;20133;-63
2023/11/09 05:25:56;;;;;;;0.20;0.20;;;;;;;4.81;100.00;97365.31;5064461;28;20165;-62
2023/11/09 05:28:22;;;;;;;0.30;0.30;;;;;;;4.87;100.00;97397.75;5063978;28;20053;-65
2023/11/09 05:30:50;;;;;;;0.30;0.30;;;;;;;4.42;100.00;97345.22;5064284;28;20048;-63
2023/11/09 05:33:18;;;;;;;0.30;0.30;;;;;;;4.68;100.00;97387.13;5063666;28;20507;-63
2023/11/09 05:35:45;;;;;;;0.30;0.30;;;;;;;4.78;100.00;97412.63;5063127;28;20063;-62
2023/11/09 05:38:13;;;;;;;0.30;0.30;;;;;;;4.30;100.00;97325.06;5062573;28;20080;-62
2023/11/09 05:40:43;;;;;;;0.30;0.30;;;;;;;4.63;100.00;97422.97;5062786;28;20082;-63
2023/11/09 05:43:11;;;;;;;0.30;0.30;;;;;;;4.72;100.00;97424.91;5062311;28;20059;-63
2023/11/09 05:45:38;;;;;;;0.20;0.20;;;;;;;4.90;100.00;97426.53;5062505;28;20538;-63
2023/11/09 05:48:05;;;;;;;0.30;0.30;;;;;;;4.96;100.00;97436.19;5061974;28;20044;-63
2023/11/09 05:50:31;;;;;;;0.30;0.30;;;;;;;5.06;100.00;97435.88;5062035;28;20127;-63
2023/11/09 05:52:58;;;;;;;0.30;0.30;;;;;;;5.08;100.00;97436.31;5063784;28;20044;-63
2023/11/09 05:55:25;;;;;;;0.22;0.22;;;;;;;5.23;100.00;97444.06;5054996;28;20062;-63
2023/11/09 05:57:51;;;;;;;0.30;0.30;;;;;;;5.30;100.00;97452.59;5066749;28;20072;-63
2023/11/09 06:00:19;;;;;;;0.30;0.30;;;;;;;5.23;100.00;97446.81;5063777;28;20505;-63
2023/11/09 06:02:45;;;;;;;0.30;0.30;;;;;;;5.38;100.00;97449.03;5063630;28;20140;-64
2023/11/09 06:05:12;;;;;;;0.30;0.30;;;;;;;5.07;99.08;97372.41;5062614;28;20511;-64
2023/11/09 06:07:39;;;;;;;0.30;0.30;;;;;;;5.64;99.09;97447.03;5063893;28;20147;-65
2023/11/09 06:10:08;;;;;;;0.30;0.30;;;;;;;5.18;98.93;97372.84;5064150;28;20048;-64
2023/11/09 06:12:36;;;;;;;0.30;0.30;;;;;;;5.96;98.62;97449.16;5062352;28;20044;-64
2023/11/09 06:15:04;;;;;;;0.30;0.30;;;;;;;6.11;97.12;97456.88;5063730;28;20060;-63
2023/11/09 06:17:30;;;;;;;0.30;0.30;;;;;;;6.09;97.59;97456.41;5063519;28;20063;-63
2023/11/09 06:19:59;;;;;;;0.30;0.30;;;;;;;6.30;100.00;97460.00;5062155;28;20076;-66
2023/11/09 06:22:26;;;;;;;0.30;0.30;;;;;;;6.44;97.93;97454.25;5063713;28;20109;-63
2023/11/09 06:24:53;;;;;;;0.38;0.38;;;;;;;6.58;98.32;97444.59;5061583;28;20570;-64
2023/11/09 06:27:20;;;;;;;0.30;0.30;;;;;;;6.35;97.97;97390.22;5063422;28;20048;-64
2023/11/09 06:29:47;;;;;;;0.30;0.30;;;;;;;6.78;95.80;97468.56;5062807;28;20146;-61
2023/11/09 06:32:14;;;;;;;0.30;0.30;;;;;;;6.60;95.30;97458.84;5063085;28;20048;-61
2023/11/09 06:34:42;;;;;;;0.40;0.40;;;;;;;6.83;96.47;97446.34;5050022;28;20582;-68
2023/11/09 06:37:09;;;;;;;0.40;0.40;;;;;;;6.82;95.64;97455.75;5075640;28;20483;-61
2023/11/09 06:39:35;;;;;;;0.40;0.40;;;;;;;6.46;96.29;97348.22;5060752;28;20052;-64
2023/11/09 06:42:02;;;;;;;0.35;0.35;;;;;;;7.04;95.13;97410.53;5059955;28;20353;-63
2023/11/09 06:44:29;;;;;;;0.32;0.32;;;;;;;7.55;93.88;97452.16;5060262;28;20140;-61
2023/11/09 06:46:58;;;;;;;0.40;0.40;;;;;;;5.69;92.21;97163.81;5064436;28;20055;-65
2023/11/09 06:49:25;;;;;;;0.40;0.40;;;;;;;7.62;92.12;97449.63;5063977;28;20064;-65
2023/11/09 06:51:53;;;;;;;0.40;0.40;;;;;;;7.87;91.69;97457.97;5064553;28;20045;-62
2023/11/09 06:54:20;;;;;;;0.40;0.40;;;;;;;7.91;90.10;97469.91;5080557;28;20131;-62
2023/11/09 06:56:46;;;;;;;0.40;0.40;;;;;;;8.14;90.25;97460.06;5064953;28;20060;-69
2023/11/09 06:59:16;;;;;;;0.40;0.40;;;;;;;8.27;86.67;97472.72;5064583;28;20052;-67
2023/11/09 07:01:43;;;;;;;0.40;0.40;;;;;;;8.13;87.37;97411.53;5060578;28;20052;-64
2023/11/09 07:04:10;;;;;;;0.40;0.40;;;;;;;8.64;87.80;97455.81;5065104;28;20055;-61
2023/11/09 07:06:37;;;;;;;0.40;0.40;;;;;;;8.80;85.68;97453.13;5063682;28;20052;-63
2023/11/09 07:09:04;;;;;;;0.40;0.40;;;;;;;8.78;84.51;97444.38;5061417;28;20075;-67
2023/11/09 07:11:31;;;;;;;0.40;0.40;;;;;;;9.13;82.64;97467.53;5066548;28;20048;-63
2023/11/09 07:13:57;;;;;;;0.40;0.40;;;;;;;9.29;80.76;97473.94;5062933;28;20519;-61
2023/11/09 07:16:24;;;;;;;0.40;0.40;;;;;;;9.30;78.19;97450.66;5064190;28;20060;-64
2023/11/09 07:18:52;;;;;;;0.40;0.40;;;;;;;9.62;79.72;97468.94;5072831;28;20580;-64
2023/11/09 07:21:21;;;;;;;0.50;0.50;;;;;;;9.75;80.90;97472.44;5071020;28;20072;-64
2023/11/09 07:23:50;;;;;;;0.50;0.50;;;;;;;9.55;78.69;97415.41;5063049;28;20056;-61
2023/11/09 07:26:17;;;;;;;0.40;0.40;;;;;;;9.88;78.01;97472.00;5064782;28;20048;-63
2023/11/09 07:28:44;;;;;;;0.40;0.40;;;;;;;7.58;82.40;97170.31;5064864;28;20056;-61
2023/11/09 07:31:11;;;;;;;0.50;0.50;;;;;;;9.33;82.53;97483.13;5064627;28;20045;-63
2023/11/09 07:33:39;;;;;;;0.40;0.40;;;;;;;8.51;83.08;97384.38;5062946;28;20051;-63
2023/11/09 07:36:06;;;;;;;0.40;0.40;;;;;;;9.41;82.50;97421.34;5063263;28;20060;-65
2023/11/09 07:38:33;;;;;;;0.50;0.50;;;;;;;9.81;80.15;97455.25;5056560;28;20048;-64
2023/11/09 07:41:00;;;;;;;0.40;0.40;;;;;;;10.25;79.79;97476.19;5065904;28;20053;-63
2023/11/09 07:43:29;;;;;;;0.50;0.50;;;;;;;10.09;78.14;97433.84;5062533;28;20503;-64
2023/11/09 07:45:56;;;;;;;0.50;0.50;;;;;;;9.90;75.92;97392.22;5059416;28;20496;-65
2023/11/09 07:48:24;;;;;;;0.50;0.50;;;;;;;10.89;76.73;97477.69;5063291;28;20067;-63
2023/11/09 07:50:51;;;;;;;0.50;0.50;;;;;;;11.10;75.64;97475.38;5079629;28;20048;-61
2023/11/09 07:53:17;;;;;;;0.50;0.50;;;;;;;10.92;74.39;97416.00;5061589;28;20790;-69
2023/11/09 07:55:44;;;;;;;0.50;0.50;;;;;;;11.52;72.62;97462.41;5064925;28;20139;-66
2023/11/09 07:58:12;;;;;;;0.50;0.50;;;;;;;11.82;72.70;97477.31;5064717;28;20053;-64
2023/11/09 08:00:40;;;;;;;0.50;0.50;;;;;;;9.90;69.12;97145.97;5061726;28;20060;-68
2023/11/09 08:03:09;;;;;;;0.50;0.50;;;;;;;11.62;67.54;97400.75;5078524;28;20505;-63
2023/11/09 08:05:41;;;;;;;0.50;0.50;;;;;;;12.16;65.11;97482.72;5064281;28;20062;-60
2023/11/09 08:08:10;;;;;;;0.50;0.50;;;;;;;11.99;62.65;97449.06;5063828;28;20053;-65
2023/11/09 08:10:37;;;;;;;0.50;0.50;;;;;;;12.19;62.17;97475.59;5063173;28;20059;-63
2023/11/09 08:13:05;;;;;;;0.60;0.60;;;;;;;12.31;60.03;97478.22;5064916;28;20040;-65
2023/11/09 08:15:32;;;;;;;0.50;0.50;;;;;;;12.02;59.21;97392.78;5060845;28;20052;-64
2023/11/09 08:17:59;;;;;;;0.50;0.50;;;;;;;12.60;56.89;97469.16;5062046;28;20060;-64
2023/11/09 08:20:25;;;;;;;0.55;0.55;;;;;;;12.20;54.70;97396.69;5063356;28;20117;-62
2023/11/09 08:22:52;;;;;;;0.60;0.60;;;;;;;12.21;54.96;97356.63;5063677;28;20052;-60
2023/11/09 08:25:19;;;;;;;0.50;0.50;;;;;;;13.09;54.08;97480.25;5063549;28;20059;-65
2023/11/09 08:27:46;;;;;;;0.60;0.60;;;;;;;11.35;53.62;97174.44;5064439;28;20059;-67
2023/11/09 08:30:15;;;;;;;0.60;0.60;;;;;;;13.42;53.26;97471.97;5063160;28;20140;-66
2023/11/09 08:32:46;;;;;;;0.60;0.60;;;;;;;13.38;53.56;97438.53;5062246;28;20508;-66
2023/11/09 08:35:14;;;;;;;0.65;0.65;;;;;;;13.67;52.98;97462.72;5063580;28;20071;-68
2023/11/09 08:37:42;;;;;;;0.60;0.60;;;;;;;13.68;52.26;97453.22;5061760;28;20464;-68
2023/11/09 08:40:16;;;;;;;0.60;0.60;;;;;;;13.65;52.32;97473.47;5063988;28;20052;-62
2023/11/09 08:42:45;;;;;;;0.60;0.60;;;;;;;13.10;53.91;97382.50;5064352;28;20320;-62
2023/11/09 08:45:12;;;;;;;0.60;0.60;;;;;;;13.68;50.64;97469.91;5063579;28;20052;-62
2023/11/09 08:47:40;;;;;;;0.60;0.60;;;;;;;13.42;51.11;97428.22;5064480;28;20052;-64
2023/11/09 08:50:08;;;;;;;0.60;0.60;;;;;;;13.59;52.05;97438.75;5062592;28;20098;-62
2023/11/09 08:52:40;;;;;;;0.50;0.50;;;;;;;13.61;53.59;97458.69;5063155;28;20519;-64
2023/11/09 08:55:08;;;;;;;0.65;0.65;;;;;;;14.01;53.05;97487.75;5059462;28;20781;-64
2023/11/09 08:57:37;;;;;;;0.70;0.70;;;;;;;13.85;52.86;97478.84;5062592;28;20048;-63
2023/11/09 09:00:11;;;;;;;0.60;0.60;;;;;;;13.51;51.13;97403.69;5061091;28;20048;-67
2023/11/09 09:02:49;;;;;;;0.60;0.60;;;;;;;14.16;51.56;97478.38;5064059;28;20061;-66
2023/11/09 09:05:18;;;;;;;0.60;0.60;;;;;;;14.17;51.53;97466.84;5063602;28;20469;-65
2023/11/09 09:07:46;;;;;;;0.60;0.60;;;;;;;14.47;50.22;97477.91;5063068;28;20162;-68
2023/11/09 09:10:17;;;;;;;0.60;0.60;;;;;;;14.61;50.82;97452.91;5063616;28;20056;-65
2023/11/09 09:12:46;;;;;;;0.60;0.60;;;;;;;14.81;48.90;97460.66;5062286;28;20169;-63
2023/11/09 09:15:16;;;;;;;0.60;0.60;;;;;;;14.53;49.76;97420.59;5063231;28;20052;-63
2023/11/09 09:17:43;;;;;;;0.70;0.70;;;;;;;14.76;49.63;97474.16;5062090;28;20129;-61
2023/11/09 09:20:15;;;;;;;0.60;0.60;;;;;;;14.07;47.53;97397.09;5064005;28;20058;-61
2023/11/09 09:22:44;;;;;;;0.60;0.60;;;;;;;14.64;47.75;97472.47;5063139;28;20061;-63
2023/11/09 09:25:12;;;;;;;0.68;0.68;;;;;;;14.04;48.38;97342.13;5057795;28;20646;-65
2023/11/09 09:27:48;;;;;;;0.65;0.65;;;;;;;14.68;48.25;97427.88;5042195;28;20114;-66
2023/11/09 09:30:21;;;;;;;0.60;0.60;;;;;;;13.88;49.16;97383.41;5055257;28;20434;-63
2023/11/09 09:32:50;;;;;;;0.60;0.60;;;;;;;14.69;49.54;97469.31;5061599;28;20340;-64
2023/11/09 09:35:25;;;;;;;0.60;0.60;;;;;;;14.78;49.15;97466.19;5060853;28;20516;-61
2023/11/09 09:38:01;;;;;;;0.60;0.60;;;;;;;14.40;48.36;97399.81;5063414;28;20594;-65
2023/11/09 09:40:32;;;;;;;0.60;0.60;;;;;;;15.18;48.55;97458.50;5063454;28;20053;-65
2023/11/09 09:43:14;;;;;;;0.60;0.60;;;;;;;15.39;48.65;97463.44;5059333;28;20140;-63
2023/11/09 09:45:42;;;;;;;0.70;0.70;;;;;;;15.55;46.95;97483.47;5043512;28;20053;-64
2023/11/09 09:48:11;;;;;;;0.63;0.63;;;;;;;15.62;45.39;97466.72;5045624;28;20570;-63
2023/11/09 09:50:39;;;;;;;0.60;0.60;;;;;;;15.64;44.78;97453.16;5063858;28;20064;-65
2023/11/09 09:53:10;;;;;;;0.60;0.60;;;;;;;16.01;45.34;97462.03;5060071;28;20073;-64
2023/11/09 09:55:39;;;;;;;0.65;0.65;;;;;;;15.97;45.28;97464.03;5043550;28;20114;-65
2023/11/09 09:58:08;;;;;;;0.70;0.70;;;;;;;14.67;45.71;97247.81;5043632;28;20048;-63
2023/11/09 10:00:36;;;;;;;0.60;0.60;;;;;;;16.17;43.67;97459.69;5043881;28;20136;-62
2023/11/09 10:03:06;;;;;;;0.60;0.60;;;;;;;15.91;44.26;97470.41;5047525;28;20048;-63
2023/11/09 10:05:36;;;;;;;0.70;0.70;;;;;;;15.59;43.94;97453.53;5063347;28;20068;-63
2023/11/09 10:08:12;;;;;;;0.60;0.60;;;;;;;15.53;45.38;97424.41;5063338;28;20110;-63
2023/11/09 10:10:49;;;;;;;0.60;0.60;;;;;;;15.96;43.55;97451.28;5063711;28;20052;-62
2023/11/09 10:13:18;;;;;;;0.70;0.70;;;;;;;16.20;43.85;97449.72;5053369;28;20048;-65
2023/11/09 10:15:53;;;;;;;0.70;0.70;;;;;;;16.29;43.54;97428.56;5075104;28;20076;-63
2023/11/09 10:18:24;;;;;;;0.63;0.63;;;;;;;16.53;43.54;97455.75;5061506;28;20056;-65
2023/11/09 10:21:03;;;;;;;0.82;0.82;;;;;;;16.56;41.38;97446.59;5062971;28;20106;-62
2023/11/09 10:23:30;;;;;;;0.70;0.70;;;;;;;16.54;42.30;97440.59;5065167;28;20467;-64
2023/11/09 10:25:59;;;;;;;0.70;0.70;;;;;;;16.64;43.01;97428.59;5066102;28;20441;-65
2023/11/09 10:28:28;;;;;;;0.63;0.63;;;;;;;16.89;42.80;97427.78;5066154;28;20157;-65
2023/11/09 10:30:55;;;;;;;0.70;0.70;;;;;;;16.69;41.69;97390.22;5067878;28;20082;-64
2023/11/09 10:33:23;;;;;;;0.70;0.70;;;;;;;16.67;42.47;97362.66;5067547;28;20135;-63
2023/11/09 10:35:52;;;;;;;0.70;0.70;;;;;;;16.67;41.40;97387.03;5066896;28;20511;-63
2023/11/09 10:38:20;;;;;;;0.60;0.60;;;;;;;17.17;39.68;97428.50;5066102;28;20044;-63
2023/11/09 10:40:48;;;;;;;0.60;0.60;;;;;;;16.42;39.45;97426.97;5047449;28;20049;-62
2023/11/09 10:43:36;;;;;;;0.70;0.70;;;;;;;15.87;42.14;97372.59;5046657;28;20569;-61
2023/11/09 10:46:08;;;;;;;0.60;0.60;;;;;;;16.17;41.52;97387.00;5045439;28;20490;-64
2023/11/09 10:48:44;;;;;;;0.70;0.70;;;;;;;16.50;40.24;97436.22;5046851;28;20145;-64
2023/11/09 10:51:13;;;;;;;0.70;0.70;;;;;;;16.43;39.71;97425.78;5047197;28;20516;-64
2023/11/09 10:53:43;;;;;;;0.63;0.63;;;;;;;16.24;37.13;97386.22;5046395;28;20048;-63
2023/11/09 10:56:13;;;;;;;0.65;0.65;;;;;;;16.67;39.52;97443.78;5055104;28;20080;-64
2023/11/09 10:58:44;;;;;;;0.70;0.70;;;;;;;16.83;38.81;97423.78;5066913;28;20586;-62
2023/11/09 11:01:20;;;;;;;0.70;0.70;;;;;;;16.78;36.41;97416.59;5065295;28;20131;-64
2023/11/09 11:03:54;;;;;;;0.70;0.70;;;;;;;16.91;37.04;97422.56;5066707;28;20086;-63
2023/11/09 11:06:51;;;;;;;0.60;0.60;;;;;;;16.52;35.34;97428.19;5067473;28;20052;-62
2023/11/09 11:09:26;;;;;;;0.60;0.60;;;;;;;14.83;37.53;97128.34;5060762;28;20056;-63
2023/11/09 11:12:01;;;;;;;0.60;0.60;;;;;;;16.57;35.44;97378.25;5066512;28;20114;-64
2023/11/09 11:14:34;;;;;;;0.70;0.70;;;;;;;17.13;36.30;97421.31;5079904;28;20141;-64
2023/11/09 11:17:21;;;;;;;0.70;0.70;;;;;;;16.87;38.91;97340.63;5054128;28;20123;-65
2023/11/09 11:20:09;;;;;;;0.70;0.70;;;;;;;17.42;39.60;97417.25;5064132;28;20066;-66
2023/11/09 11:22:48;;;;;;;0.70;0.70;;;;;;;17.19;37.73;97422.50;5080513;28;20544;-68
2023/11/09 11:25:19;;;;;;;0.60;0.60;;;;;;;8.20;39.06;95989.03;5063149;28;20087;-69
2023/11/09 11:28:00;;;;;;;0.70;0.70;;;;;;;17.06;38.67;97370.94;5062649;28;20048;-62
2023/11/09 11:30:38;;;;;;;0.63;0.63;;;;;;;16.89;38.68;97321.44;5061720;28;20048;-61
2023/11/09 11:33:16;;;;;;;0.80;0.80;;;;;;;17.06;38.37;97379.34;5062987;28;20483;-62
2023/11/09 11:35:51;;;;;;;0.70;0.70;;;;;;;16.99;39.05;97357.00;5065531;28;20474;-62
2023/11/09 11:38:29;;;;;;;0.70;0.70;;;;;;;16.95;38.78;97364.59;5064124;28;20053;-66
2023/11/09 11:41:05;;;;;;;0.70;0.70;;;;;;;17.42;38.75;97412.41;5066196;28;20127;-64
2023/11/09 11:43:39;;;;;;;0.70;0.70;;;;;;;16.63;38.46;97391.84;5063360;28;20048;-68
2023/11/09 11:46:11;;;;;;;0.70;0.70;;;;;;;16.02;38.38;97385.41;5081116;28;20556;-62
2023/11/09 11:48:48;;;;;;;0.63;0.63;;;;;;;16.62;38.73;97419.00;5064069;28;20134;-63
2023/11/09 11:51:18;;;;;;;0.70;0.70;;;;;;;16.11;39.71;97349.47;5065853;28;20079;-67
2023/11/09 11:53:52;;;;;;;0.60;0.60;;;;;;;16.58;39.55;97424.59;5064731;28;20071;-61